Overview Statistics Trail Chart Weather Telemetry Raw packets
 

This is the latest recevied weather packets stored in our database for station/object KF0RZX-13. If no packets are shown the sender has not sent any weather packets the latest 10 day(s).

<< 13 14 15 16 17 18 19 >>
Time Temp. Humidity Pressure Rain* Wind** Luminosity Snow
1787692021 30° C 31% 1024.7 hPa 0 mm - - -
1787690216 30° C 31% 1025.1 hPa 0 mm - - -
1787688411 28.89° C 33% 1025.1 hPa 0 mm - - -
1787686606 28.89° C 33% 1025.7 hPa 0 mm - - -
1787684802 27.78° C 37% 1025.7 hPa 0 mm - - -
1787682996 27.22° C 39% 1026.1 hPa 0 mm - - -
1787681171 27.22° C 42% 1026.8 hPa 0 mm - - -
1787679368 26.11° C 45% 1026.8 hPa 0 mm - - -
1787677561 25° C 47% 1027.1 hPa 0 mm - - -
1787675757 23.89° C 61% 1027.1 hPa 0 mm - - -
1787673954 22.78° C 69% 1027.1 hPa 0 mm - - -
1787672147 22.22° C 69% 1026.8 hPa 0 mm - - -
1787670341 22.22° C 69% 1026.8 hPa 0 mm - - -
1787668536 20° C 68% 1026.4 hPa 0 mm - - -
1787666732 20° C 68% 1026.1 hPa - - - -
1787664909 17.22° C 83% 1026.1 hPa 0 mm - - -
1787663103 16.11° C 88% 1025.4 hPa 0 mm - - -
1787661296 15° C 94% 1025.1 hPa 0 mm - - -
1787659491 17.22° C 83% 1025.1 hPa 0 mm - - -
1787657686 17.22° C 83% 1024.4 hPa 0 mm - - -
1787655881 17.22° C 77% 1024.4 hPa 0 mm - - -
1787654075 17.78° C 73% 1024.4 hPa 0 mm - - -
1787652266 18.89° C 68% 1023.7 hPa 0 mm - - -
1787650461 17.78° C 77% 1023.7 hPa 0 mm - - -
1787648656 18.89° C 73% 1023.4 hPa 0 mm - - -

* Rain latest hour (hover to see other rain measurements)
** Current wind speed in m/s (hover to see current wind gust speed)